createdAt,value
2022-08-05T00:00:52.678Z,6.10
2022-08-05T00:01:54.143Z,9.80
2022-08-05T00:02:55.550Z,8.98
2022-08-05T00:03:57.546Z,8.88
2022-08-05T00:04:58.977Z,8.38
2022-08-05T00:06:04.801Z,8.25
2022-08-05T00:07:27.063Z,11.48
2022-08-05T00:08:43.089Z,6.63
2022-08-05T00:09:44.464Z,11.75
2022-08-05T00:10:45.823Z,31.67
2022-08-05T00:11:49.057Z,12.73
2022-08-05T00:12:56.763Z,10.50
2022-08-05T00:13:58.383Z,7.85
2022-08-05T00:14:59.762Z,5.38
2022-08-05T00:16:36.475Z,12.43
2022-08-05T00:17:42.570Z,9.30
2022-08-05T00:18:49.702Z,13.65
2022-08-05T00:20:01.945Z,10.77
2022-08-05T00:21:04.848Z,15.82
2022-08-05T00:22:08.250Z,19.15
2022-08-05T00:23:13.306Z,12.80
2022-08-05T00:24:16.181Z,11.40
2022-08-05T00:25:20.746Z,12.48
2022-08-05T00:26:22.457Z,16.70
2022-08-05T00:27:28.387Z,21.65
2022-08-05T00:28:37.106Z,10.30
2022-08-05T00:29:38.535Z,11.10
2022-08-05T00:30:41.203Z,10.15
2022-08-05T00:32:10.693Z,11.40
2022-08-05T00:33:07.030Z,13.43
2022-08-05T00:34:55.425Z,16.38
2022-08-05T00:36:16.172Z,16.60
2022-08-05T00:37:13.741Z,13.25
2022-08-05T00:38:15.497Z,11.10
2022-08-05T00:39:37.055Z,19.30
2022-08-05T00:40:47.019Z,7.70
2022-08-05T00:41:55.595Z,13.63
2022-08-05T00:42:58.410Z,14.13
2022-08-05T00:44:00.232Z,13.23
2022-08-05T00:45:02.003Z,9.98
2022-08-05T00:46:03.621Z,10.70
2022-08-05T00:47:06.239Z,11.57
2022-08-05T00:48:08.328Z,7.68
2022-08-05T00:49:14.098Z,10.85
2022-08-05T00:50:16.001Z,8.57
2022-08-05T00:51:51.825Z,9.63
2022-08-05T00:52:39.131Z,11.98
2022-08-05T00:54:01.218Z,13.23
2022-08-05T00:55:02.185Z,10.57
2022-08-05T00:56:05.495Z,8.05
2022-08-05T00:57:09.474Z,8.55
2022-08-05T00:58:11.979Z,9.82
2022-08-05T00:59:13.349Z,13.52
2022-08-05T01:00:15.019Z,14.68
2022-08-05T01:01:42.233Z,12.32
2022-08-05T01:02:40.047Z,10.13
2022-08-05T01:03:41.871Z,13.32
2022-08-05T01:04:43.308Z,11.18
2022-08-05T01:05:44.919Z,12.13
2022-08-05T01:06:48.777Z,12.00
2022-08-05T01:08:40.761Z,9.80
2022-08-05T01:09:12.203Z,10.65
2022-08-05T01:10:15.803Z,9.80
2022-08-05T01:11:33.474Z,12.68
2022-08-05T01:12:35.399Z,11.52
2022-08-05T01:13:58.042Z,12.90
2022-08-05T01:15:05.494Z,10.02
2022-08-05T01:16:10.104Z,11.90
2022-08-05T01:17:13.752Z,10.57
2022-08-05T01:18:20.807Z,16.08
2022-08-05T01:19:22.291Z,9.85
2022-08-05T01:20:46.317Z,8.35
2022-08-05T01:22:02.924Z,9.00
2022-08-05T01:23:34.864Z,11.85
2022-08-05T01:24:45.611Z,13.60
2022-08-05T01:25:54.128Z,13.82
2022-08-05T01:26:59.810Z,16.50
2022-08-05T01:28:01.140Z,15.90
2022-08-05T01:29:08.498Z,13.15
2022-08-05T01:30:17.795Z,9.52
2022-08-05T01:31:29.604Z,14.15
2022-08-05T01:32:33.391Z,11.73
2022-08-05T01:33:37.370Z,10.52
2022-08-05T01:34:42.466Z,10.13
2022-08-05T01:35:51.639Z,11.93
2022-08-05T01:37:24.881Z,15.82
2022-08-05T01:38:29.966Z,12.15
2022-08-05T01:39:46.404Z,11.27
2022-08-05T01:40:49.245Z,12.40
2022-08-05T01:41:52.064Z,14.95
2022-08-05T01:42:55.726Z,12.50
2022-08-05T01:43:57.177Z,16.70
2022-08-05T01:45:02.219Z,8.40
2022-08-05T01:46:07.549Z,11.32
2022-08-05T01:47:19.688Z,11.88
2022-08-05T01:48:23.260Z,8.93
2022-08-05T01:50:00.357Z,8.25
2022-08-05T01:50:51.795Z,10.63
2022-08-05T01:51:58.896Z,12.00
2022-08-05T01:53:01.568Z,8.70
2022-08-05T01:54:05.524Z,8.43
2022-08-05T01:55:12.886Z,12.00
2022-08-05T01:58:12.770Z,10.75
2022-08-05T01:58:12.771Z,11.50
2022-08-05T01:59:04.821Z,14.93
2022-08-05T02:00:11.715Z,15.90
2022-08-05T02:01:14.720Z,10.93
2022-08-05T02:02:28.504Z,10.07
2022-08-05T02:03:36.060Z,11.20
2022-08-05T02:04:40.623Z,10.30
2022-08-05T02:05:43.289Z,10.75
2022-08-05T02:06:45.023Z,9.23
2022-08-05T02:07:56.291Z,10.88
2022-08-05T02:09:03.049Z,8.88
2022-08-05T02:10:05.227Z,6.60
2022-08-05T02:11:11.974Z,10.15
2022-08-05T02:12:18.663Z,7.82
2022-08-05T02:13:25.648Z,8.60
2022-08-05T02:14:32.098Z,8.40
2022-08-05T02:15:41.406Z,6.97
2022-08-05T02:16:53.419Z,11.02
2022-08-05T02:18:31.447Z,8.48
2022-08-05T02:19:47.101Z,6.90
2022-08-05T02:21:00.114Z,7.97
2022-08-05T02:22:01.454Z,10.80
2022-08-05T02:23:05.563Z,16.25
2022-08-05T02:24:14.504Z,6.90
2022-08-05T02:25:22.223Z,9.20
2022-08-05T02:26:26.599Z,8.25
2022-08-05T02:27:29.712Z,6.57
2022-08-05T02:28:50.303Z,11.27
2022-08-05T02:29:58.468Z,7.03
2022-08-05T02:31:02.972Z,7.93
2022-08-05T02:32:08.102Z,9.27
2022-08-05T02:33:14.356Z,10.55
2022-08-05T02:34:28.883Z,8.57
2022-08-05T02:35:37.386Z,6.07
2022-08-05T02:36:45.396Z,6.20
2022-08-05T02:37:54.106Z,6.32
2022-08-05T02:38:56.444Z,8.07
2022-08-05T02:39:59.439Z,6.18
2022-08-05T02:41:01.341Z,7.85
2022-08-05T02:42:26.032Z,7.43
2022-08-05T02:43:29.369Z,7.28
2022-08-05T02:44:31.977Z,8.57
2022-08-05T02:45:52.644Z,10.25
2022-08-05T02:46:59.938Z,6.97
2022-08-05T02:48:11.730Z,7.47
2022-08-05T02:49:15.295Z,9.45
2022-08-05T02:50:18.137Z,9.60
2022-08-05T02:51:20.321Z,6.07
2022-08-05T02:52:30.899Z,6.68
2022-08-05T02:53:39.384Z,6.60
2022-08-05T02:54:42.770Z,6.57
2022-08-05T02:55:59.527Z,13.52
2022-08-05T02:57:01.898Z,7.50
2022-08-05T02:58:09.706Z,5.45
2022-08-05T02:59:14.747Z,8.98
2022-08-05T03:00:16.749Z,8.90
2022-08-05T03:01:20.238Z,6.75
2022-08-05T03:02:24.340Z,10.32
2022-08-05T03:03:34.048Z,7.32
2022-08-05T03:04:53.959Z,7.85
2022-08-05T03:06:56.335Z,5.80
2022-08-05T03:07:40.540Z,8.93
2022-08-05T03:08:42.799Z,7.10
2022-08-05T03:09:51.690Z,8.75
2022-08-05T03:11:54.443Z,7.00
2022-08-05T03:12:30.906Z,7.82
2022-08-05T03:13:51.795Z,5.53
2022-08-05T03:14:53.803Z,6.03
2022-08-05T03:15:58.296Z,8.00
2022-08-05T03:16:59.985Z,7.72
2022-08-05T03:18:02.202Z,7.97
2022-08-05T03:19:13.001Z,6.85
2022-08-05T03:20:21.662Z,10.48
2022-08-05T03:21:28.950Z,9.88
2022-08-05T03:22:34.451Z,10.15
2022-08-05T03:23:36.846Z,6.57
2022-08-05T03:24:42.162Z,6.88
2022-08-05T03:26:04.628Z,8.18
2022-08-05T03:27:09.914Z,7.97
2022-08-05T03:28:11.315Z,14.10
2022-08-05T03:29:17.378Z,8.35
2022-08-05T03:30:19.623Z,12.43
2022-08-05T03:31:57.035Z,6.78
2022-08-05T03:32:51.446Z,6.68
2022-08-05T03:33:53.442Z,8.90
2022-08-05T03:34:55.014Z,10.82
2022-08-05T03:35:57.275Z,8.05
2022-08-05T03:36:58.733Z,6.70
2022-08-05T03:38:00.334Z,7.25
2022-08-05T03:39:08.168Z,5.65
2022-08-05T03:40:15.515Z,7.88
2022-08-05T03:41:25.843Z,7.68
2022-08-05T03:42:52.120Z,6.85
2022-08-05T03:44:08.930Z,6.28
2022-08-05T03:45:21.378Z,7.78
2022-08-05T03:46:29.501Z,8.15
2022-08-05T03:47:35.441Z,6.15
2022-08-05T03:48:42.489Z,10.15
2022-08-05T03:49:51.100Z,7.03
2022-08-05T03:52:38.248Z,7.93
2022-08-05T03:52:38.672Z,8.80
2022-08-05T03:56:04.663Z,6.38
2022-08-05T03:56:05.995Z,5.85
2022-08-05T03:56:41.491Z,8.23
2022-08-05T03:57:44.550Z,8.15
2022-08-05T03:58:46.898Z,8.95
2022-08-05T03:59:55.818Z,10.10
2022-08-05T04:00:57.862Z,9.35
2022-08-05T04:02:02.584Z,8.60
2022-08-05T04:03:06.543Z,23.48
2022-08-05T04:04:09.643Z,12.05
2022-08-05T04:05:12.347Z,9.25
2022-08-05T04:06:13.927Z,9.10
2022-08-05T04:07:15.417Z,14.88
2022-08-05T04:08:34.809Z,10.98
2022-08-05T04:09:38.465Z,11.18
2022-08-05T04:10:55.058Z,9.00
2022-08-05T04:11:57.114Z,12.77
2022-08-05T04:12:59.862Z,11.75
2022-08-05T04:14:01.529Z,7.07
2022-08-05T04:15:03.312Z,6.60
2022-08-05T04:16:06.094Z,8.68
2022-08-05T04:17:08.765Z,5.70
2022-08-05T04:18:20.542Z,7.32
2022-08-05T04:19:28.425Z,6.88
2022-08-05T04:20:29.861Z,8.05
2022-08-05T04:22:09.545Z,5.93
2022-08-05T04:22:54.940Z,8.95
2022-08-05T04:24:06.753Z,5.20
2022-08-05T04:25:10.786Z,6.57
2022-08-05T04:26:13.763Z,6.82
2022-08-05T04:27:15.377Z,7.88
2022-08-05T04:28:17.267Z,4.72
2022-08-05T04:29:18.790Z,4.85
2022-08-05T04:30:21.298Z,6.25
2022-08-05T04:31:22.690Z,5.82
2022-08-05T04:32:31.179Z,9.45
2022-08-05T04:34:17.712Z,7.45
2022-08-05T04:34:57.648Z,6.63
2022-08-05T04:36:15.723Z,4.82
2022-08-05T04:37:20.470Z,4.30
2022-08-05T04:38:39.448Z,4.18
2022-08-05T04:39:41.620Z,4.70
2022-08-05T04:40:44.515Z,4.30
2022-08-05T04:41:52.164Z,5.03
2022-08-05T04:42:53.532Z,6.10
2022-08-05T04:43:55.177Z,5.85
2022-08-05T04:44:56.552Z,4.50
2022-08-05T04:45:57.936Z,4.97
2022-08-05T04:47:08.883Z,3.70
2022-08-05T04:48:18.393Z,5.03
2022-08-05T04:49:38.990Z,2.78
2022-08-05T04:51:03.593Z,2.33
2022-08-05T04:52:11.264Z,3.45
2022-08-05T04:53:13.917Z,5.85
2022-08-05T04:54:15.382Z,5.13
2022-08-05T04:55:16.795Z,4.90
2022-08-05T04:56:34.244Z,3.65
2022-08-05T04:57:38.009Z,3.35
2022-08-05T04:58:39.350Z,3.45
2022-08-05T04:59:40.942Z,5.20
2022-08-05T05:00:42.421Z,4.13
2022-08-05T05:02:08.263Z,5.38
2022-08-05T05:03:05.644Z,5.07
2022-08-05T05:04:08.226Z,5.28
2022-08-05T05:05:26.162Z,5.93
2022-08-05T05:06:39.324Z,4.85
2022-08-05T05:07:52.836Z,8.27
2022-08-05T05:08:57.756Z,9.02
2022-08-05T05:09:59.772Z,5.22
2022-08-05T05:11:03.715Z,4.88
2022-08-05T05:12:07.023Z,3.90
2022-08-05T05:13:12.656Z,7.25
2022-08-05T05:14:16.282Z,4.28
2022-08-05T05:15:57.927Z,4.28
2022-08-05T05:16:39.177Z,5.00
2022-08-05T05:17:56.743Z,5.28
2022-08-05T05:19:18.768Z,4.30
2022-08-05T05:20:20.464Z,3.30
2022-08-05T05:21:21.854Z,4.55
2022-08-05T05:22:49.966Z,4.25
2022-08-05T05:24:04.177Z,6.30
2022-08-05T05:25:16.504Z,5.00
2022-08-05T05:26:18.767Z,7.22
2022-08-05T05:27:20.122Z,3.38
2022-08-05T05:28:22.554Z,4.88
2022-08-05T05:30:03.571Z,5.22
2022-08-05T05:30:49.700Z,4.72
2022-08-05T05:31:51.353Z,6.72
2022-08-05T05:32:54.256Z,6.72
2022-08-05T05:34:01.861Z,8.98
2022-08-05T05:35:04.142Z,5.57
2022-08-05T05:36:07.522Z,7.75
2022-08-05T05:37:08.852Z,7.28
2022-08-05T05:38:12.965Z,3.92
2022-08-05T05:39:19.324Z,8.73
2022-08-05T05:40:22.127Z,4.15
2022-08-05T05:41:40.093Z,5.50
2022-08-05T05:42:42.378Z,4.53
2022-08-05T05:43:58.329Z,5.85
2022-08-05T05:45:02.938Z,3.60
2022-08-05T05:46:05.157Z,5.35
2022-08-05T05:47:13.323Z,6.32
2022-08-05T05:48:27.622Z,4.95
2022-08-05T05:49:29.225Z,4.13
2022-08-05T05:50:30.908Z,3.50
2022-08-05T05:51:49.698Z,3.45
2022-08-05T05:52:52.119Z,6.93
2022-08-05T05:53:57.567Z,7.00
2022-08-05T05:55:01.231Z,5.47
2022-08-05T05:56:03.395Z,4.22
2022-08-05T05:57:04.903Z,5.38
2022-08-05T05:58:14.981Z,5.15
2022-08-05T05:59:16.396Z,7.47
2022-08-05T06:00:18.600Z,3.22
2022-08-05T06:01:23.341Z,5.15
2022-08-05T06:02:32.413Z,5.05
2022-08-05T06:03:53.789Z,6.45
2022-08-05T06:05:01.360Z,3.97
2022-08-05T06:06:06.642Z,3.75
2022-08-05T06:07:08.548Z,6.68
2022-08-05T06:08:12.053Z,5.45
2022-08-05T06:09:17.693Z,5.82
2022-08-05T06:10:29.233Z,4.13
2022-08-05T06:11:31.397Z,4.43
2022-08-05T06:12:33.682Z,8.57
2022-08-05T06:13:53.755Z,4.93
2022-08-05T06:14:55.692Z,5.93
2022-08-05T06:16:28.359Z,4.13
2022-08-05T06:17:22.623Z,6.00
2022-08-05T06:18:31.336Z,4.22
2022-08-05T06:19:34.738Z,7.15
2022-08-05T06:20:36.983Z,4.75
2022-08-05T06:21:42.267Z,6.25
2022-08-05T06:22:50.839Z,4.38
2022-08-05T06:23:52.170Z,5.18
2022-08-05T06:24:53.515Z,4.47
2022-08-05T06:26:12.138Z,7.90
2022-08-05T06:28:09.209Z,4.63
2022-08-05T06:28:37.766Z,4.05
2022-08-05T06:29:46.654Z,5.25
2022-08-05T06:30:53.549Z,7.82
2022-08-05T06:31:56.589Z,3.47
2022-08-05T06:33:01.009Z,6.15
2022-08-05T06:34:07.263Z,5.38
2022-08-05T06:35:15.490Z,3.47
2022-08-05T06:36:57.494Z,3.80
2022-08-05T06:37:57.952Z,4.78
2022-08-05T06:39:00.910Z,5.80
2022-08-05T06:40:02.556Z,3.20
2022-08-05T06:41:04.589Z,6.45
2022-08-05T06:42:06.096Z,3.85
2022-08-05T06:43:07.456Z,5.38
2022-08-05T06:44:30.141Z,4.53
2022-08-05T06:45:45.008Z,3.50
2022-08-05T06:46:54.259Z,3.30
2022-08-05T06:48:44.187Z,5.90
2022-08-05T06:49:17.161Z,2.50
2022-08-05T06:50:20.177Z,5.40
2022-08-05T06:51:23.786Z,3.65
2022-08-05T06:52:36.648Z,3.55
2022-08-05T06:53:39.692Z,4.38
2022-08-05T06:54:41.042Z,4.30
2022-08-05T06:55:42.397Z,3.15
2022-08-05T06:56:54.813Z,3.28
2022-08-05T06:58:20.381Z,3.42
2022-08-05T06:59:30.490Z,4.78
2022-08-05T07:00:41.141Z,5.38
2022-08-05T07:01:42.797Z,3.85
2022-08-05T07:02:47.681Z,3.00
2022-08-05T07:03:55.182Z,4.63
2022-08-05T07:04:56.545Z,6.93
2022-08-05T07:05:59.935Z,5.25
2022-08-05T07:07:01.290Z,5.70
2022-08-05T07:08:02.735Z,3.03
2022-08-05T07:09:06.008Z,4.90
2022-08-05T07:10:08.272Z,5.28
2022-08-05T07:11:15.435Z,4.30
2022-08-05T07:12:35.990Z,4.50
2022-08-05T07:14:00.038Z,5.53
2022-08-05T07:15:34.340Z,4.15
2022-08-05T07:18:01.402Z,4.53
2022-08-05T07:18:14.623Z,2.60
2022-08-05T07:19:44.261Z,5.05
2022-08-05T07:20:43.371Z,3.53
2022-08-05T07:22:00.025Z,4.20
2022-08-05T07:23:02.198Z,7.90
2022-08-05T07:24:06.015Z,3.70
2022-08-05T07:25:54.392Z,3.88
2022-08-05T07:26:34.038Z,4.20
2022-08-05T07:27:58.123Z,3.13
2022-08-05T07:28:56.910Z,2.30
2022-08-05T07:30:27.579Z,2.97
2022-08-05T07:31:53.963Z,3.30
2022-08-05T07:32:43.903Z,4.60
2022-08-05T07:33:45.274Z,4.70
2022-08-05T07:34:46.622Z,4.30
2022-08-05T07:36:03.139Z,3.83
2022-08-05T07:37:14.598Z,2.40
2022-08-05T07:38:32.285Z,4.65
2022-08-05T07:40:26.810Z,4.93
2022-08-05T07:41:00.366Z,2.78
2022-08-05T07:42:12.921Z,3.25
2022-08-05T07:43:20.606Z,4.47
2022-08-05T07:44:22.373Z,2.40
2022-08-05T07:45:56.616Z,2.83
2022-08-05T07:46:48.205Z,2.47
2022-08-05T07:47:50.843Z,3.70
2022-08-05T07:49:02.031Z,3.25
2022-08-05T07:50:06.505Z,3.45
2022-08-05T07:51:23.032Z,4.60
2022-08-05T07:52:29.460Z,3.38
2022-08-05T07:53:36.866Z,3.15
2022-08-05T07:54:51.516Z,4.75
2022-08-05T07:56:05.142Z,6.68
2022-08-05T07:57:17.834Z,4.00
2022-08-05T07:58:54.656Z,2.72
2022-08-05T07:59:50.923Z,2.30
2022-08-05T08:00:52.456Z,4.60
2022-08-05T08:01:57.482Z,4.57
2022-08-05T08:03:15.343Z,2.85
2022-08-05T08:04:17.274Z,5.05
2022-08-05T08:05:39.825Z,5.03
2022-08-05T08:06:41.991Z,4.10
2022-08-05T08:07:59.631Z,3.55
2022-08-05T08:09:01.906Z,4.25
2022-08-05T08:10:03.699Z,3.33
2022-08-05T08:11:05.157Z,3.67
2022-08-05T08:12:27.253Z,4.28
2022-08-05T08:13:32.234Z,3.60
2022-08-05T08:14:46.737Z,4.30
2022-08-05T08:16:49.794Z,4.05
2022-08-05T08:17:10.756Z,3.00
2022-08-05T08:18:20.978Z,4.03
2022-08-05T08:20:21.652Z,4.88
2022-08-05T08:21:02.059Z,3.10
2022-08-05T08:22:05.387Z,3.65
2022-08-05T08:23:59.672Z,7.03
2022-08-05T08:24:51.449Z,4.43
2022-08-05T08:26:00.653Z,3.83
2022-08-05T08:27:07.149Z,2.92
2022-08-05T08:28:18.069Z,4.97
2022-08-05T08:29:29.338Z,3.38
2022-08-05T08:30:47.774Z,3.58
2022-08-05T08:31:52.092Z,3.47
2022-08-05T08:32:53.440Z,3.38
2022-08-05T08:33:54.874Z,2.50
2022-08-05T08:34:57.485Z,3.28
2022-08-05T08:36:18.430Z,2.92
2022-08-05T08:37:21.453Z,6.65
2022-08-05T08:38:35.199Z,6.38
2022-08-05T08:39:38.178Z,4.47
2022-08-05T08:40:51.515Z,5.28
2022-08-05T08:41:59.699Z,6.13
2022-08-05T08:44:57.855Z,4.97
2022-08-05T08:45:19.740Z,6.20
2022-08-05T08:45:52.694Z,3.58
2022-08-05T08:46:54.298Z,2.63
2022-08-05T08:48:12.774Z,5.97
2022-08-05T08:50:06.121Z,3.03
2022-08-05T08:51:03.318Z,4.80
2022-08-05T08:52:13.674Z,5.82
2022-08-05T08:53:16.870Z,6.97
2022-08-05T08:54:18.255Z,5.20
2022-08-05T08:56:02.177Z,2.95
2022-08-05T08:56:47.820Z,4.90
2022-08-05T08:57:58.385Z,4.90
2022-08-05T08:59:05.879Z,3.03
2022-08-05T09:00:16.591Z,8.63
2022-08-05T09:01:21.117Z,5.13
2022-08-05T09:02:26.544Z,4.97
2022-08-05T09:03:28.806Z,6.68
2022-08-05T09:04:58.339Z,2.30
2022-08-05T09:06:07.843Z,3.63
2022-08-05T09:07:28.161Z,3.22
2022-08-05T09:08:30.328Z,2.28
2022-08-05T09:09:35.407Z,3.33
2022-08-05T09:10:40.294Z,5.57
2022-08-05T09:11:51.135Z,4.15
2022-08-05T09:12:55.655Z,2.92
2022-08-05T09:14:09.517Z,3.55
2022-08-05T09:15:18.946Z,3.38
2022-08-05T09:16:21.810Z,2.25
2022-08-05T09:17:42.782Z,2.92
2022-08-05T09:18:50.312Z,3.63
2022-08-05T09:20:01.691Z,5.57
2022-08-05T09:21:05.841Z,4.45
2022-08-05T09:22:22.505Z,3.15
2022-08-05T09:23:43.466Z,2.28
2022-08-05T09:24:56.475Z,2.63
2022-08-05T09:26:09.187Z,1.75
2022-08-05T09:27:10.752Z,2.53
2022-08-05T09:28:23.362Z,2.13
2022-08-05T09:29:47.606Z,2.95
2022-08-05T09:30:56.758Z,3.88
2022-08-05T09:32:41.033Z,3.28
2022-08-05T09:33:24.185Z,4.97
2022-08-05T09:34:46.354Z,3.15
2022-08-05T09:35:57.649Z,3.20
2022-08-05T09:36:59.801Z,4.60
2022-08-05T09:38:12.672Z,5.40
2022-08-05T09:39:22.000Z,6.68
2022-08-05T09:40:29.928Z,3.95
2022-08-05T09:41:39.002Z,3.47
2022-08-05T09:42:43.493Z,4.13
2022-08-05T09:43:49.846Z,4.32
2022-08-05T09:44:52.567Z,2.92
2022-08-05T09:46:07.025Z,3.30
2022-08-05T09:47:20.592Z,2.90
2022-08-05T09:48:32.217Z,2.03
2022-08-05T09:49:54.865Z,4.00
2022-08-05T09:51:02.966Z,3.25
2022-08-05T09:52:16.850Z,3.80
2022-08-05T09:53:26.184Z,2.55
2022-08-05T09:54:40.561Z,1.50
2022-08-05T09:55:57.260Z,3.42
2022-08-05T09:57:01.696Z,2.65
2022-08-05T09:58:09.984Z,1.42
2022-08-05T09:59:17.182Z,2.25
2022-08-05T10:00:20.105Z,4.60
2022-08-05T10:01:32.464Z,2.80
2022-08-05T10:02:39.110Z,3.75
2022-08-05T10:03:58.867Z,2.42
2022-08-05T10:05:09.872Z,5.35
2022-08-05T10:06:15.408Z,2.53
2022-08-05T10:07:19.925Z,2.38
2022-08-05T10:08:36.080Z,2.47
2022-08-05T10:10:13.827Z,3.28
2022-08-05T10:11:15.628Z,1.73
2022-08-05T10:12:30.089Z,3.15
2022-08-05T10:13:44.093Z,1.73
2022-08-05T10:14:49.434Z,1.55
2022-08-05T10:15:58.216Z,1.70
2022-08-05T10:17:36.968Z,3.65
2022-08-05T10:18:34.676Z,2.80
2022-08-05T10:20:04.289Z,1.77
2022-08-05T10:21:06.393Z,3.08
2022-08-05T10:22:15.805Z,1.75
2022-08-05T10:23:55.060Z,3.25
2022-08-05T10:24:54.474Z,2.38
2022-08-05T10:25:56.921Z,4.03
2022-08-05T10:27:00.438Z,1.60
2022-08-05T10:28:13.911Z,2.45
2022-08-05T10:29:23.922Z,1.73
2022-08-05T10:32:48.045Z,1.80
2022-08-05T10:33:00.859Z,2.22
2022-08-05T10:33:29.035Z,2.58
2022-08-05T10:34:31.233Z,2.78
2022-08-05T10:35:33.702Z,2.03
2022-08-05T10:36:41.957Z,3.45
2022-08-05T10:37:45.092Z,2.13
2022-08-05T10:38:48.084Z,2.55
2022-08-05T10:39:58.906Z,2.33
2022-08-05T10:41:23.433Z,3.13
2022-08-05T10:42:32.570Z,2.03
2022-08-05T10:43:36.562Z,1.73
2022-08-05T10:44:39.049Z,2.22
2022-08-05T10:45:54.983Z,3.13
2022-08-05T10:47:25.980Z,3.38
2022-08-05T10:48:38.356Z,2.38
2022-08-05T10:50:32.226Z,3.85
2022-08-05T10:51:59.838Z,3.45
2022-08-05T10:53:02.050Z,3.35
2022-08-05T10:54:22.960Z,2.53
2022-08-05T10:55:25.149Z,3.35
2022-08-05T10:56:27.910Z,4.47
2022-08-05T10:57:33.915Z,2.83
2022-08-05T10:58:49.454Z,2.08
2022-08-05T11:00:11.054Z,2.55
2022-08-05T11:01:17.759Z,2.65
2022-08-05T11:02:37.997Z,2.22
2022-08-05T11:03:58.360Z,3.38
2022-08-05T11:05:04.039Z,2.92
2022-08-05T11:06:08.311Z,2.30
2022-08-05T11:07:11.989Z,3.83
2022-08-05T11:08:36.629Z,2.35
2022-08-05T11:09:39.247Z,3.33
2022-08-05T11:10:50.019Z,4.43
2022-08-05T11:11:53.991Z,2.30
2022-08-05T11:12:56.305Z,2.90
2022-08-05T11:14:00.458Z,2.05
2022-08-05T11:15:19.113Z,2.60
2022-08-05T11:16:47.409Z,3.78
2022-08-05T11:18:00.521Z,2.80
2022-08-05T11:20:10.142Z,3.50
2022-08-05T11:20:46.428Z,2.70
2022-08-05T11:21:49.547Z,2.55
2022-08-05T11:22:54.033Z,3.25
2022-08-05T11:24:30.046Z,2.53
2022-08-05T11:26:05.736Z,5.28
2022-08-05T11:27:11.355Z,2.42
2022-08-05T11:28:16.928Z,2.70
2022-08-05T11:29:40.182Z,3.17
2022-08-05T11:31:01.716Z,2.92
2022-08-05T11:32:24.546Z,3.75
2022-08-05T11:33:34.741Z,3.53
2022-08-05T11:34:54.048Z,4.13
2022-08-05T11:36:07.740Z,3.78
2022-08-05T11:38:29.219Z,3.22
2022-08-05T11:38:45.464Z,3.30
2022-08-05T11:39:49.193Z,4.80
2022-08-05T11:41:34.397Z,4.60
2022-08-05T11:42:28.027Z,2.95
2022-08-05T11:44:00.947Z,3.00
2022-08-05T11:44:53.772Z,3.13
2022-08-05T11:46:15.354Z,3.38
2022-08-05T11:47:49.602Z,2.38
2022-08-05T11:48:42.327Z,4.85
2022-08-05T11:49:49.604Z,4.72
2022-08-05T11:50:53.212Z,4.07
2022-08-05T11:51:55.134Z,2.72
2022-08-05T11:53:03.951Z,2.55
2022-08-05T11:54:07.770Z,3.75
2022-08-05T11:55:10.794Z,4.28
2022-08-05T11:56:14.217Z,7.05
2022-08-05T11:57:25.169Z,2.72
2022-08-05T11:58:33.843Z,4.13
2022-08-05T11:59:49.597Z,2.80
2022-08-05T12:01:00.527Z,3.95
2022-08-05T12:02:05.574Z,4.55
2022-08-05T12:03:28.930Z,4.53
2022-08-05T12:04:40.066Z,4.13
2022-08-05T12:05:44.462Z,4.22
2022-08-05T12:06:48.979Z,4.60
2022-08-05T12:08:09.100Z,4.32
2022-08-05T12:09:19.801Z,3.42
2022-08-05T12:10:23.044Z,5.60
2022-08-05T12:11:39.891Z,4.40
2022-08-05T12:12:58.257Z,7.10
2022-08-05T12:14:04.345Z,5.93
2022-08-05T12:15:05.946Z,5.07
2022-08-05T12:16:14.813Z,4.85
2022-08-05T12:18:10.123Z,3.33
2022-08-05T12:18:39.676Z,3.78
2022-08-05T12:20:27.779Z,4.00
2022-08-05T12:21:15.182Z,5.85
2022-08-05T12:22:19.934Z,3.83
2022-08-05T12:23:21.799Z,3.08
2022-08-05T12:24:24.651Z,5.65
2022-08-05T12:25:28.579Z,3.13
2022-08-05T12:26:44.902Z,5.20
2022-08-05T12:27:53.020Z,4.40
2022-08-05T12:28:54.893Z,4.97
2022-08-05T12:30:05.388Z,2.72
2022-08-05T12:31:06.767Z,4.38
2022-08-05T12:32:09.641Z,3.15
2022-08-05T12:33:27.720Z,5.07
2022-08-05T12:34:33.898Z,4.00
2022-08-05T12:35:39.948Z,4.60
2022-08-05T12:36:45.544Z,5.15
2022-08-05T12:37:47.771Z,5.22
2022-08-05T12:38:49.895Z,4.40
2022-08-05T12:39:53.982Z,4.57
2022-08-05T12:40:56.689Z,5.88
2022-08-05T12:41:59.537Z,5.95
2022-08-05T12:43:00.974Z,3.05
2022-08-05T12:44:03.910Z,2.80
2022-08-05T12:45:08.886Z,3.47
2022-08-05T12:46:23.650Z,4.25
2022-08-05T12:47:31.056Z,3.33
2022-08-05T12:48:38.962Z,3.20
2022-08-05T12:50:03.448Z,3.40
2022-08-05T12:52:10.841Z,3.90
2022-08-05T12:52:38.532Z,4.53
2022-08-05T12:53:43.876Z,3.83
2022-08-05T12:54:49.647Z,4.35
2022-08-05T12:55:51.190Z,3.17
2022-08-05T12:56:53.859Z,5.22
2022-08-05T12:58:52.569Z,3.30
2022-08-05T12:59:27.778Z,6.03
2022-08-05T13:02:01.450Z,4.70
2022-08-05T13:02:08.190Z,4.22
2022-08-05T13:03:12.131Z,5.05
2022-08-05T13:04:20.836Z,3.58
2022-08-05T13:05:23.416Z,3.17
2022-08-05T13:06:26.037Z,4.15
2022-08-05T13:07:55.919Z,3.08
2022-08-05T13:08:52.673Z,3.00
2022-08-05T13:09:57.060Z,2.70
2022-08-05T13:11:00.492Z,4.22
2022-08-05T13:12:04.081Z,3.42
2022-08-05T13:13:06.174Z,3.72
2022-08-05T13:14:10.903Z,2.65
2022-08-05T13:15:18.185Z,5.15
2022-08-05T13:16:27.772Z,3.30
2022-08-05T13:17:32.067Z,3.40
2022-08-05T13:18:52.811Z,5.95
2022-08-05T13:20:01.601Z,4.20
2022-08-05T13:21:03.047Z,4.07
2022-08-05T13:22:05.520Z,3.60
2022-08-05T13:23:07.247Z,3.22
2022-08-05T13:24:09.444Z,4.50
2022-08-05T13:25:19.378Z,3.13
2022-08-05T13:26:29.907Z,3.50
2022-08-05T13:27:39.307Z,2.60
2022-08-05T13:28:44.136Z,2.53
2022-08-05T13:30:35.104Z,3.85
2022-08-05T13:31:11.075Z,3.85
2022-08-05T13:32:29.191Z,4.78
2022-08-05T13:34:24.394Z,2.58
2022-08-05T13:34:54.250Z,2.58
2022-08-05T13:35:55.692Z,3.53
2022-08-05T13:37:04.466Z,2.80
2022-08-05T13:38:08.461Z,3.40
2022-08-05T13:40:13.917Z,3.47
2022-08-05T13:40:51.295Z,3.78
2022-08-05T13:41:53.038Z,3.20
2022-08-05T13:42:55.541Z,2.75
2022-08-05T13:43:57.220Z,2.70
2022-08-05T13:44:59.001Z,3.60
2022-08-05T13:46:00.413Z,3.65
2022-08-05T13:47:08.497Z,2.50
2022-08-05T13:48:58.127Z,3.45
2022-08-05T13:49:32.014Z,3.47
2022-08-05T13:50:36.911Z,3.45
2022-08-05T13:51:41.147Z,3.10
2022-08-05T13:52:43.235Z,4.45
2022-08-05T13:53:47.680Z,3.83
2022-08-05T13:54:53.405Z,3.80
2022-08-05T13:55:57.660Z,3.05
2022-08-05T13:57:01.661Z,3.72
2022-08-05T13:58:03.676Z,4.22
2022-08-05T13:59:06.337Z,2.90
2022-08-05T14:00:26.993Z,4.57
2022-08-05T14:01:44.356Z,2.80
2022-08-05T14:02:48.156Z,2.72
2022-08-05T14:04:09.723Z,5.97
2022-08-05T14:05:11.688Z,2.90
2022-08-05T14:06:26.307Z,4.07
2022-08-05T14:07:59.995Z,3.03
2022-08-05T14:08:51.158Z,2.65
2022-08-05T14:09:54.285Z,3.88
2022-08-05T14:11:03.219Z,3.83
2022-08-05T14:12:32.030Z,2.72
2022-08-05T14:13:34.359Z,2.65
2022-08-05T14:14:36.161Z,2.55
2022-08-05T14:16:08.476Z,4.03
2022-08-05T14:16:59.531Z,3.25
2022-08-05T14:18:02.310Z,3.17
2022-08-05T14:19:05.239Z,3.78
2022-08-05T14:20:07.747Z,2.58
2022-08-05T14:22:07.764Z,3.15
2022-08-05T14:22:34.249Z,3.80
2022-08-05T14:23:37.304Z,5.93
2022-08-05T14:24:39.839Z,3.25
2022-08-05T14:25:45.069Z,5.47
2022-08-05T14:27:01.989Z,5.75
2022-08-05T14:28:08.482Z,3.80
2022-08-05T14:29:17.483Z,2.85
2022-08-05T14:30:20.842Z,2.55
2022-08-05T14:31:54.308Z,3.30
2022-08-05T14:32:44.371Z,3.13
2022-08-05T14:34:00.262Z,4.28
2022-08-05T14:35:02.311Z,3.00
2022-08-05T14:36:04.267Z,3.53
2022-08-05T14:37:05.745Z,2.22
2022-08-05T14:38:07.082Z,2.85
2022-08-05T14:39:28.561Z,2.72
2022-08-05T14:40:30.546Z,4.10
2022-08-05T14:41:32.504Z,3.45
2022-08-05T14:42:34.658Z,4.57
2022-08-05T14:43:57.500Z,3.15
2022-08-05T14:45:00.738Z,4.85
2022-08-05T14:46:02.318Z,2.83
2022-08-05T14:47:04.212Z,2.70
2022-08-05T14:48:08.582Z,2.70
2022-08-05T14:49:10.335Z,4.22
2022-08-05T14:50:18.293Z,3.22
2022-08-05T14:51:20.653Z,3.80
2022-08-05T14:52:50.372Z,3.67
2022-08-05T14:53:44.658Z,5.25
2022-08-05T14:54:52.798Z,3.22
2022-08-05T14:55:54.818Z,3.28
2022-08-05T14:56:57.230Z,4.80
2022-08-05T14:57:58.569Z,3.88
2022-08-05T14:59:00.057Z,4.05
2022-08-05T15:00:02.017Z,4.95
2022-08-05T15:01:04.018Z,2.83
2022-08-05T15:02:15.931Z,2.90
2022-08-05T15:03:17.597Z,3.38
2022-08-05T15:04:20.703Z,2.80
2022-08-05T15:05:30.214Z,3.90
2022-08-05T15:06:49.336Z,3.65
2022-08-05T15:08:08.535Z,3.05
2022-08-05T15:09:12.583Z,4.05
2022-08-05T15:10:16.727Z,3.10
2022-08-05T15:11:18.096Z,3.70
2022-08-05T15:12:20.778Z,4.97
2022-08-05T15:13:28.456Z,3.42
2022-08-05T15:14:35.861Z,3.75
2022-08-05T15:15:55.341Z,4.05
2022-08-05T15:16:57.402Z,3.35